createdAt,value
2023-05-06T00:00:22.382Z,57.40
2023-05-06T00:02:49.405Z,57.60
2023-05-06T00:05:18.569Z,57.30
2023-05-06T00:07:46.419Z,57.80
2023-05-06T00:10:13.460Z,57.50
2023-05-06T00:12:40.715Z,57.90
2023-05-06T00:15:08.229Z,58.10
2023-05-06T00:17:35.553Z,58.50
2023-05-06T00:20:03.770Z,58.60
2023-05-06T00:22:30.917Z,58.70
2023-05-06T00:24:57.815Z,58.50
2023-05-06T00:27:24.816Z,58.70
2023-05-06T00:29:51.944Z,58.60
2023-05-06T00:32:18.922Z,57.80
2023-05-06T00:34:46.126Z,57.80
2023-05-06T00:37:13.083Z,57.80
2023-05-06T00:39:40.002Z,57.60
2023-05-06T00:42:07.030Z,57.90
2023-05-06T00:44:33.901Z,57.80
2023-05-06T00:47:01.537Z,58.30
2023-05-06T00:49:30.305Z,58.00
2023-05-06T00:51:58.526Z,58.40
2023-05-06T00:54:26.797Z,58.30
2023-05-06T00:56:54.210Z,58.20
2023-05-06T00:59:22.691Z,58.40
2023-05-06T01:01:52.190Z,58.50
2023-05-06T01:04:19.389Z,58.50
2023-05-06T01:06:51.149Z,58.70
2023-05-06T01:09:22.627Z,58.80
2023-05-06T01:12:12.964Z,58.90
2023-05-06T01:14:55.051Z,58.80
2023-05-06T01:17:27.997Z,58.90
2023-05-06T01:19:59.832Z,59.30
2023-05-06T01:22:28.772Z,59.40
2023-05-06T01:24:55.867Z,59.70
2023-05-06T01:27:23.367Z,59.90
2023-05-06T01:29:50.562Z,60.40
2023-05-06T01:32:33.895Z,60.30
2023-05-06T01:35:13.158Z,60.40
2023-05-06T01:38:02.456Z,60.80
2023-05-06T01:40:31.230Z,60.80
2023-05-06T01:43:02.490Z,61.20
2023-05-06T01:45:34.104Z,61.10
2023-05-06T01:48:01.665Z,61.30
2023-05-06T01:50:29.693Z,61.30
2023-05-06T01:53:02.598Z,61.40
2023-05-06T01:55:29.948Z,61.50
2023-05-06T01:57:56.987Z,61.80
2023-05-06T02:00:25.244Z,61.80
2023-05-06T02:02:52.684Z,62.10
2023-05-06T02:05:20.781Z,62.20
2023-05-06T02:07:51.854Z,62.60
2023-05-06T02:10:19.645Z,63.00
2023-05-06T02:12:52.148Z,62.90
2023-05-06T02:15:19.180Z,63.00
2023-05-06T02:17:46.219Z,62.90
2023-05-06T02:20:13.397Z,63.40
2023-05-06T02:22:40.571Z,63.20
2023-05-06T02:25:08.665Z,63.60
2023-05-06T02:27:35.906Z,63.40
2023-05-06T02:30:06.556Z,63.10
2023-05-06T02:32:33.593Z,63.40
2023-05-06T02:35:00.743Z,63.80
2023-05-06T02:37:27.692Z,63.50
2023-05-06T02:39:54.597Z,63.80
2023-05-06T02:42:21.881Z,63.70
2023-05-06T02:44:48.789Z,63.70
2023-05-06T02:47:15.830Z,63.50
2023-05-06T02:49:44.617Z,64.00
2023-05-06T02:52:12.817Z,63.90
2023-05-06T02:54:39.751Z,63.70
2023-05-06T02:57:06.826Z,63.80
2023-05-06T02:59:34.864Z,63.70
2023-05-06T03:02:05.020Z,63.90
2023-05-06T03:04:32.154Z,63.60
2023-05-06T03:06:59.151Z,63.50
2023-05-06T03:09:26.251Z,63.60
2023-05-06T03:11:53.737Z,63.40
2023-05-06T03:14:21.390Z,63.80
2023-05-06T03:16:49.451Z,63.80
2023-05-06T03:19:16.599Z,64.00
2023-05-06T03:21:44.776Z,63.70
2023-05-06T03:24:11.983Z,64.10
2023-05-06T03:26:39.508Z,64.00
2023-05-06T03:29:07.436Z,64.20
2023-05-06T03:31:37.958Z,64.20
2023-05-06T03:34:07.208Z,64.70
2023-05-06T03:36:34.854Z,64.70
2023-05-06T03:39:01.913Z,64.90
2023-05-06T03:41:31.512Z,65.00
2023-05-06T03:43:59.076Z,65.40
2023-05-06T03:46:27.931Z,65.10
2023-05-06T03:48:55.090Z,65.50
2023-05-06T03:51:22.404Z,65.30
2023-05-06T03:53:54.668Z,65.50
2023-05-06T03:56:23.105Z,65.50
2023-05-06T03:58:54.331Z,65.70
2023-05-06T04:01:23.266Z,65.90
2023-05-06T04:03:50.557Z,65.90
2023-05-06T04:06:18.258Z,66.10
2023-05-06T04:08:45.444Z,66.20
2023-05-06T04:11:12.740Z,66.40
2023-05-06T04:13:39.695Z,66.60
2023-05-06T04:16:12.935Z,66.50
2023-05-06T04:18:44.095Z,66.40
2023-05-06T04:21:14.208Z,67.00
2023-05-06T04:23:44.307Z,67.00
2023-05-06T04:26:14.952Z,66.80
2023-05-06T04:28:42.870Z,66.80
2023-05-06T04:31:14.726Z,66.30
2023-05-06T04:33:45.532Z,66.50
2023-05-06T04:36:19.090Z,66.50
2023-05-06T04:38:57.682Z,65.90
2023-05-06T04:41:26.062Z,65.90
2023-05-06T04:43:53.787Z,65.60
2023-05-06T04:46:23.966Z,65.90
2023-05-06T04:48:52.401Z,65.90
2023-05-06T04:51:20.754Z,65.40
2023-05-06T04:53:48.970Z,65.40
2023-05-06T04:56:16.158Z,65.70
2023-05-06T04:58:43.178Z,65.80
2023-05-06T05:01:11.497Z,65.50
2023-05-06T05:03:41.297Z,65.40
2023-05-06T05:06:10.111Z,65.50
2023-05-06T05:08:37.199Z,65.70
2023-05-06T05:11:06.601Z,65.10
2023-05-06T05:13:35.054Z,64.80
2023-05-06T05:16:05.274Z,64.60
2023-05-06T05:18:33.660Z,64.80
2023-05-06T05:21:06.908Z,64.90
2023-05-06T05:23:35.963Z,64.60
2023-05-06T05:26:03.955Z,64.40
2023-05-06T05:28:31.013Z,63.80
2023-05-06T05:31:08.344Z,63.70
2023-05-06T05:33:36.944Z,64.40
2023-05-06T05:36:07.998Z,63.80
2023-05-06T05:38:36.157Z,63.30
2023-05-06T05:41:04.152Z,63.70
2023-05-06T05:43:31.563Z,63.70
2023-05-06T05:46:00.705Z,63.60
2023-05-06T05:48:32.776Z,63.40
2023-05-06T05:51:04.762Z,63.00
2023-05-06T05:53:32.632Z,63.60
2023-05-06T05:55:59.723Z,62.80
2023-05-06T05:58:27.289Z,63.00
2023-05-06T06:00:59.739Z,62.30
2023-05-06T06:03:27.464Z,62.20
2023-05-06T06:05:55.384Z,62.40
2023-05-06T06:08:24.862Z,61.80
2023-05-06T06:10:52.914Z,61.70
2023-05-06T06:13:25.344Z,61.60
2023-05-06T06:15:57.461Z,60.70
2023-05-06T06:18:33.105Z,60.40
2023-05-06T06:21:00.500Z,60.60
2023-05-06T06:23:27.638Z,60.90
2023-05-06T06:25:54.669Z,61.00
2023-05-06T06:28:21.922Z,61.40
2023-05-06T06:30:48.921Z,61.30
2023-05-06T06:33:15.948Z,60.40
2023-05-06T06:35:45.533Z,60.50
2023-05-06T06:38:12.674Z,60.00
2023-05-06T06:40:42.762Z,60.10
2023-05-06T06:43:20.449Z,60.70
2023-05-06T06:45:54.757Z,61.00
2023-05-06T06:48:22.040Z,60.80
2023-05-06T06:50:49.107Z,60.90
2023-05-06T06:53:16.237Z,61.10
2023-05-06T06:55:44.432Z,60.80
2023-05-06T06:58:11.384Z,60.10
2023-05-06T07:00:38.569Z,60.70
2023-05-06T07:03:05.583Z,60.90
2023-05-06T07:05:32.554Z,61.20
2023-05-06T07:07:59.580Z,60.00
2023-05-06T07:10:26.770Z,60.50
2023-05-06T07:12:54.330Z,60.50
2023-05-06T07:15:21.471Z,59.30
2023-05-06T07:17:48.564Z,59.90
2023-05-06T07:20:16.310Z,60.30
2023-05-06T07:22:44.395Z,58.30
2023-05-06T07:25:11.672Z,59.70
2023-05-06T07:27:38.925Z,58.80
2023-05-06T07:30:07.004Z,58.40
2023-05-06T07:32:34.261Z,59.00
2023-05-06T07:35:01.698Z,57.80
2023-05-06T07:37:28.709Z,56.20
2023-05-06T07:39:57.518Z,57.40
2023-05-06T07:42:24.515Z,57.00
2023-05-06T07:44:51.531Z,55.80
2023-05-06T07:47:28.253Z,56.70
2023-05-06T07:49:55.868Z,56.30
2023-05-06T07:52:24.066Z,56.70
2023-05-06T07:54:51.372Z,57.20
2023-05-06T07:57:18.344Z,57.20
2023-05-06T07:59:48.624Z,57.80
2023-05-06T08:02:16.449Z,58.00
2023-05-06T08:04:43.740Z,59.00
2023-05-06T08:07:12.729Z,58.30
2023-05-06T08:09:39.840Z,58.20
2023-05-06T08:12:07.505Z,57.80
2023-05-06T08:14:34.561Z,59.00
2023-05-06T08:17:02.679Z,58.00
2023-05-06T08:19:32.790Z,57.60
2023-05-06T08:21:59.734Z,57.80
2023-05-06T08:24:36.183Z,57.70
2023-05-06T08:27:06.325Z,58.40
2023-05-06T08:29:33.379Z,58.80
2023-05-06T08:32:00.493Z,58.50
2023-05-06T08:34:27.610Z,56.60
2023-05-06T08:36:54.523Z,56.90
2023-05-06T08:39:21.468Z,57.80
2023-05-06T08:41:52.776Z,57.40
2023-05-06T08:44:23.030Z,57.60
2023-05-06T08:46:50.281Z,57.40
2023-05-06T08:49:17.375Z,56.90
2023-05-06T08:51:44.908Z,56.40
2023-05-06T08:54:16.074Z,56.40
2023-05-06T08:56:47.532Z,57.60
2023-05-06T08:59:14.584Z,59.90
2023-05-06T09:01:41.692Z,59.80
2023-05-06T09:04:10.274Z,59.40
2023-05-06T09:06:37.171Z,59.30
2023-05-06T09:09:04.206Z,59.00
2023-05-06T09:11:31.870Z,59.40
2023-05-06T09:14:13.273Z,58.70
2023-05-06T09:16:42.823Z,59.40
2023-05-06T09:19:10.117Z,60.50
2023-05-06T09:21:39.239Z,61.60
2023-05-06T09:24:07.839Z,61.80
2023-05-06T09:26:37.298Z,61.20
2023-05-06T09:29:05.550Z,62.50
2023-05-06T09:31:33.020Z,62.90
2023-05-06T09:34:01.253Z,63.00
2023-05-06T09:36:29.133Z,63.20
2023-05-06T09:38:57.823Z,64.30
2023-05-06T09:41:25.736Z,65.20
2023-05-06T09:43:54.283Z,68.50
2023-05-06T09:46:22.900Z,69.10
2023-05-06T09:48:54.335Z,70.60
2023-05-06T09:51:21.795Z,71.10
2023-05-06T09:53:48.882Z,71.90
2023-05-06T09:56:16.509Z,72.60
2023-05-06T09:58:43.669Z,71.20
2023-05-06T10:01:19.215Z,72.00
2023-05-06T10:03:54.577Z,72.30
2023-05-06T10:06:24.507Z,71.90
2023-05-06T10:08:52.784Z,71.70
2023-05-06T10:11:21.810Z,72.10
2023-05-06T10:13:49.904Z,72.90
2023-05-06T10:16:19.202Z,73.30
2023-05-06T10:18:49.829Z,73.00
2023-05-06T10:21:24.476Z,73.20
2023-05-06T10:24:00.019Z,74.30
2023-05-06T10:26:29.905Z,74.10
2023-05-06T10:28:57.191Z,74.30
2023-05-06T10:31:25.133Z,75.10
2023-05-06T10:33:54.955Z,75.40
2023-05-06T10:36:24.504Z,76.00
2023-05-06T10:38:56.937Z,76.40
2023-05-06T10:41:27.797Z,76.30
2023-05-06T10:43:59.980Z,76.80
2023-05-06T10:46:30.707Z,76.60
2023-05-06T10:49:08.528Z,75.60
2023-05-06T10:51:37.780Z,76.00
2023-05-06T10:54:19.923Z,76.50
2023-05-06T10:56:49.912Z,76.20
2023-05-06T10:59:23.679Z,75.10
2023-05-06T11:02:11.041Z,74.80
2023-05-06T11:04:38.746Z,74.80
2023-05-06T11:07:21.189Z,74.80
2023-05-06T11:10:03.363Z,75.40
2023-05-06T11:13:19.000Z,74.50
2023-05-06T11:15:46.474Z,74.30
2023-05-06T11:18:26.828Z,74.70
2023-05-06T11:21:02.751Z,74.30
2023-05-06T11:23:42.484Z,73.20
2023-05-06T11:26:11.210Z,73.50
2023-05-06T11:28:42.941Z,72.80
2023-05-06T11:31:10.117Z,72.90
2023-05-06T11:33:44.429Z,73.70
2023-05-06T11:36:18.922Z,73.50
2023-05-06T11:38:47.406Z,72.90
2023-05-06T11:41:17.512Z,72.30
2023-05-06T11:43:51.893Z,73.10
2023-05-06T11:46:19.911Z,73.40
2023-05-06T11:48:50.479Z,73.70
2023-05-06T11:51:22.751Z,73.70
2023-05-06T11:53:49.709Z,73.40
2023-05-06T11:56:17.054Z,73.50
2023-05-06T11:58:44.192Z,73.80
2023-05-06T12:01:11.100Z,73.70
2023-05-06T12:03:38.230Z,74.20
2023-05-06T12:06:05.483Z,74.40
2023-05-06T12:08:34.832Z,73.50
2023-05-06T12:11:03.748Z,73.20
2023-05-06T12:13:31.218Z,73.60
2023-05-06T12:15:59.768Z,73.00
2023-05-06T12:18:27.409Z,71.30
2023-05-06T12:21:01.420Z,70.50
2023-05-06T12:23:28.484Z,70.50
2023-05-06T12:26:04.036Z,69.80
2023-05-06T12:28:33.364Z,69.30
2023-05-06T12:31:01.982Z,68.10
2023-05-06T12:33:44.113Z,67.60
2023-05-06T12:36:11.344Z,68.40
2023-05-06T12:38:38.355Z,69.00
2023-05-06T12:41:07.604Z,67.90
2023-05-06T12:43:34.522Z,67.10
2023-05-06T12:46:06.547Z,67.00
2023-05-06T12:48:34.980Z,67.80
2023-05-06T12:51:16.976Z,67.90
2023-05-06T12:53:43.922Z,68.20
2023-05-06T12:56:10.792Z,67.90
2023-05-06T12:58:38.657Z,68.10
2023-05-06T13:01:07.661Z,68.20
2023-05-06T13:03:38.346Z,67.50
2023-05-06T13:06:05.894Z,68.30
2023-05-06T13:08:33.865Z,68.00
2023-05-06T13:11:02.682Z,65.60
2023-05-06T13:13:29.742Z,66.10
2023-05-06T13:15:57.125Z,66.40
2023-05-06T13:18:24.152Z,66.00
2023-05-06T13:20:51.809Z,67.10
2023-05-06T13:23:19.687Z,65.40
2023-05-06T13:26:02.865Z,63.70
2023-05-06T13:28:32.956Z,63.90
2023-05-06T13:31:00.009Z,63.30
2023-05-06T13:33:27.256Z,62.30
2023-05-06T13:35:54.324Z,62.00
2023-05-06T13:38:22.074Z,59.70
2023-05-06T13:40:53.647Z,60.30
2023-05-06T13:43:21.822Z,60.70
2023-05-06T13:45:48.734Z,59.90
2023-05-06T13:48:15.889Z,59.80
2023-05-06T13:50:46.366Z,58.50
2023-05-06T13:53:14.113Z,60.20
2023-05-06T13:55:42.608Z,59.40
2023-05-06T13:58:10.046Z,60.20
2023-05-06T14:00:37.137Z,59.60
2023-05-06T14:03:04.634Z,59.60
2023-05-06T14:05:32.517Z,58.90
2023-05-06T14:07:59.575Z,59.80
2023-05-06T14:10:26.690Z,58.60
2023-05-06T14:12:53.704Z,59.00
2023-05-06T14:15:21.079Z,58.90
2023-05-06T14:17:48.013Z,60.50
2023-05-06T14:20:17.139Z,58.90
2023-05-06T14:22:44.079Z,59.00
2023-05-06T14:25:11.441Z,59.40
2023-05-06T14:27:38.648Z,59.60
2023-05-06T14:30:08.925Z,58.20
2023-05-06T14:32:37.070Z,58.80
2023-05-06T14:35:07.121Z,58.80
2023-05-06T14:37:34.078Z,60.40
2023-05-06T14:40:01.287Z,60.30
2023-05-06T14:42:28.248Z,59.40
2023-05-06T14:44:57.834Z,60.10
2023-05-06T14:47:25.291Z,60.70
2023-05-06T14:49:52.212Z,60.50
2023-05-06T14:52:19.228Z,60.70
2023-05-06T14:54:48.727Z,61.00
2023-05-06T14:57:16.102Z,61.10
2023-05-06T14:59:43.136Z,61.30
2023-05-06T15:02:10.378Z,60.80
2023-05-06T15:04:37.629Z,61.70
2023-05-06T15:07:04.755Z,61.70
2023-05-06T15:09:31.757Z,61.40
2023-05-06T15:11:58.775Z,61.50
2023-05-06T15:14:26.187Z,61.50
2023-05-06T15:16:56.839Z,62.10
2023-05-06T15:19:24.629Z,63.00
2023-05-06T15:21:51.725Z,62.80
2023-05-06T15:24:18.738Z,65.10
2023-05-06T15:26:45.930Z,67.50
2023-05-06T15:29:13.097Z,69.40
2023-05-06T15:31:41.119Z,70.90
2023-05-06T15:34:09.860Z,71.90
2023-05-06T15:36:37.265Z,73.50
2023-05-06T15:39:04.667Z,74.50
2023-05-06T15:41:34.002Z,75.30
2023-05-06T15:44:02.714Z,75.70
2023-05-06T15:46:31.425Z,75.50
2023-05-06T15:49:22.397Z,75.60
2023-05-06T15:51:45.916Z,75.80
2023-05-06T15:54:13.533Z,75.50
2023-05-06T15:56:41.559Z,76.50
2023-05-06T15:59:09.109Z,75.00
2023-05-06T16:02:16.464Z,74.90
2023-05-06T16:04:24.525Z,75.40
2023-05-06T16:06:51.725Z,74.70
2023-05-06T16:09:18.690Z,74.50
2023-05-06T16:11:45.761Z,74.10
2023-05-06T16:14:13.240Z,73.80
2023-05-06T16:16:40.451Z,73.90
2023-05-06T16:19:07.943Z,73.20
2023-05-06T16:21:35.169Z,72.60
2023-05-06T16:24:02.532Z,73.20
2023-05-06T16:26:29.779Z,73.70
2023-05-06T16:28:56.668Z,73.30
2023-05-06T16:31:23.744Z,73.80
2023-05-06T16:33:51.034Z,74.50
2023-05-06T16:36:17.981Z,74.30
2023-05-06T16:38:44.944Z,73.80
2023-05-06T16:41:11.872Z,73.30
2023-05-06T16:43:38.716Z,74.10
2023-05-06T16:46:06.362Z,73.50
2023-05-06T16:48:33.593Z,73.20
2023-05-06T16:51:00.697Z,73.30
2023-05-06T16:53:28.056Z,73.00
2023-05-06T16:55:55.581Z,72.90
2023-05-06T16:58:22.620Z,72.10
2023-05-06T17:00:52.654Z,72.30
2023-05-06T17:03:19.989Z,71.60
2023-05-06T17:05:47.154Z,71.00
2023-05-06T17:08:16.279Z,71.20
2023-05-06T17:11:12.760Z,70.10
2023-05-06T17:13:39.955Z,70.30
2023-05-06T17:16:07.971Z,70.10
2023-05-06T17:18:34.898Z,69.70
2023-05-06T17:21:02.180Z,69.50
2023-05-06T17:23:29.224Z,69.90
2023-05-06T17:25:57.227Z,70.60
2023-05-06T17:28:24.265Z,70.60
2023-05-06T17:30:51.323Z,71.40
2023-05-06T17:33:18.280Z,71.40
2023-05-06T17:35:45.154Z,71.60
2023-05-06T17:38:13.162Z,71.80
2023-05-06T17:40:40.016Z,71.80
2023-05-06T17:43:07.417Z,71.70
2023-05-06T17:45:34.434Z,71.70
2023-05-06T17:48:01.511Z,71.90
2023-05-06T17:50:28.920Z,72.00
2023-05-06T17:52:55.938Z,71.80
2023-05-06T17:55:23.177Z,72.20
2023-05-06T17:57:50.345Z,72.10
2023-05-06T18:00:17.585Z,71.60
2023-05-06T18:02:45.424Z,71.90
2023-05-06T18:05:13.518Z,71.80
2023-05-06T18:07:41.145Z,72.00
2023-05-06T18:10:08.763Z,71.70
2023-05-06T18:12:36.046Z,72.00
2023-05-06T18:15:03.368Z,72.30
2023-05-06T18:17:30.271Z,71.90
2023-05-06T18:19:57.320Z,71.40
2023-05-06T18:22:24.260Z,71.80
2023-05-06T18:25:11.090Z,72.10
2023-05-06T18:27:38.461Z,71.90
2023-05-06T18:30:06.563Z,71.80
2023-05-06T18:32:34.602Z,71.60
2023-05-06T18:35:01.890Z,71.90
2023-05-06T18:37:31.750Z,71.90
2023-05-06T18:39:58.805Z,71.80
2023-05-06T18:42:27.554Z,71.90
2023-05-06T18:44:54.693Z,72.00
2023-05-06T18:47:21.658Z,72.00
2023-05-06T18:49:48.810Z,72.00
2023-05-06T18:52:17.760Z,72.30
2023-05-06T18:54:45.222Z,72.20
2023-05-06T18:57:12.612Z,72.30
2023-05-06T18:59:39.594Z,72.50
2023-05-06T19:02:07.951Z,72.30
2023-05-06T19:04:34.997Z,72.90
2023-05-06T19:07:02.030Z,72.50
2023-05-06T19:09:29.051Z,72.30
2023-05-06T19:11:56.341Z,72.30
2023-05-06T19:14:24.318Z,72.10
2023-05-06T19:16:52.525Z,71.90
2023-05-06T19:19:19.515Z,72.00
2023-05-06T19:21:46.547Z,71.70
2023-05-06T19:24:16.868Z,71.70
2023-05-06T19:26:51.285Z,71.80
2023-05-06T19:29:22.261Z,71.20
2023-05-06T19:31:49.571Z,70.70
2023-05-06T19:34:16.636Z,71.20
2023-05-06T19:36:43.641Z,70.30
2023-05-06T19:39:10.810Z,71.10
2023-05-06T19:41:40.073Z,71.50
2023-05-06T19:44:07.243Z,71.30
2023-05-06T19:46:34.321Z,72.00
2023-05-06T19:49:01.407Z,70.90
2023-05-06T19:51:28.439Z,71.50
2023-05-06T19:53:55.374Z,71.70
2023-05-06T19:56:22.329Z,71.70
2023-05-06T19:58:51.192Z,72.20
2023-05-06T20:01:22.466Z,71.80
2023-05-06T20:03:49.835Z,71.90
2023-05-06T20:06:17.179Z,71.70
2023-05-06T20:08:44.187Z,72.10
2023-05-06T20:11:11.349Z,71.80
2023-05-06T20:13:38.289Z,71.80
2023-05-06T20:16:05.522Z,72.00
2023-05-06T20:18:33.645Z,72.00
2023-05-06T20:21:00.904Z,71.90
2023-05-06T20:23:35.567Z,71.90
2023-05-06T20:26:02.992Z,71.60
2023-05-06T20:28:31.561Z,71.50
2023-05-06T20:30:59.891Z,72.10
2023-05-06T20:33:26.947Z,72.10
2023-05-06T20:35:53.918Z,72.10
2023-05-06T20:38:21.046Z,71.70
2023-05-06T20:40:48.365Z,71.70
2023-05-06T20:43:15.736Z,71.60
2023-05-06T20:45:42.748Z,71.70
2023-05-06T20:48:09.804Z,71.70
2023-05-06T20:50:37.240Z,72.00
2023-05-06T20:53:04.360Z,72.40
2023-05-06T20:55:31.491Z,72.80
2023-05-06T20:57:58.456Z,73.00
2023-05-06T21:00:25.628Z,72.90
2023-05-06T21:02:52.736Z,72.70
2023-05-06T21:05:19.844Z,72.50
2023-05-06T21:07:46.933Z,72.70
2023-05-06T21:10:14.670Z,72.50
2023-05-06T21:12:47.808Z,72.40
2023-05-06T21:15:15.166Z,72.40
2023-05-06T21:17:42.934Z,72.50
2023-05-06T21:20:10.679Z,72.40
2023-05-06T21:22:37.657Z,72.40
2023-05-06T21:25:13.401Z,72.50
2023-05-06T21:27:40.726Z,72.50
2023-05-06T21:30:09.332Z,72.00
2023-05-06T21:32:36.598Z,72.10
2023-05-06T21:35:04.171Z,72.30
2023-05-06T21:37:31.319Z,72.50
2023-05-06T21:39:58.302Z,73.00
2023-05-06T21:42:25.536Z,72.40
2023-05-06T21:44:52.529Z,73.00
2023-05-06T21:47:19.736Z,73.20
2023-05-06T21:50:08.076Z,73.40
2023-05-06T21:52:35.181Z,73.60
2023-05-06T21:55:02.317Z,73.80
2023-05-06T21:57:29.332Z,73.70
2023-05-06T21:59:56.569Z,74.10
2023-05-06T22:02:28.710Z,74.60
2023-05-06T22:04:57.160Z,74.50
2023-05-06T22:07:24.458Z,74.60
2023-05-06T22:09:51.516Z,74.70
2023-05-06T22:12:18.537Z,74.80
2023-05-06T22:14:46.112Z,74.70
2023-05-06T22:17:13.032Z,74.90
2023-05-06T22:19:40.970Z,74.80
2023-05-06T22:22:08.365Z,74.80
2023-05-06T22:24:35.429Z,74.50
2023-05-06T22:27:03.148Z,74.10
2023-05-06T22:29:30.361Z,74.70
2023-05-06T22:31:57.557Z,75.10
2023-05-06T22:34:27.078Z,75.40
2023-05-06T22:36:54.060Z,76.00
2023-05-06T22:39:21.523Z,75.80
2023-05-06T22:41:50.793Z,75.80
2023-05-06T22:44:17.827Z,75.60
2023-05-06T22:46:44.877Z,75.30
2023-05-06T22:49:11.932Z,75.50
2023-05-06T22:51:38.871Z,75.30
2023-05-06T22:54:06.003Z,75.80
2023-05-06T22:56:32.961Z,75.60
2023-05-06T22:59:00.045Z,75.70
2023-05-06T23:01:32.102Z,75.50
2023-05-06T23:04:00.224Z,75.70
2023-05-06T23:06:31.136Z,75.50
2023-05-06T23:08:58.349Z,75.60
2023-05-06T23:11:25.640Z,75.70
2023-05-06T23:13:52.590Z,75.80
2023-05-06T23:16:19.703Z,75.60
2023-05-06T23:18:46.706Z,76.00
2023-05-06T23:21:13.725Z,76.40
2023-05-06T23:23:40.781Z,76.40
2023-05-06T23:26:07.720Z,76.40
2023-05-06T23:28:34.785Z,76.30
2023-05-06T23:31:01.774Z,76.20
2023-05-06T23:33:28.831Z,76.30
2023-05-06T23:35:55.854Z,76.00
2023-05-06T23:38:25.070Z,76.20
2023-05-06T23:40:52.004Z,76.10
2023-05-06T23:43:19.054Z,76.10
2023-05-06T23:45:46.067Z,76.10
2023-05-06T23:48:13.241Z,76.00
2023-05-06T23:50:40.219Z,75.90
2023-05-06T23:53:07.182Z,76.20
2023-05-06T23:55:34.129Z,75.70
2023-05-06T23:58:01.130Z,75.80
